Time;durP1;ratioP1;P1;durP2;ratioP2;P2;SDS_P1;SDS_P2;PMS_P1;PMS_P2;Temp;Humidity;BMP_temperature;BMP_pressure;BME280_temperature;BME280_humidity;BME280_pressure;Samples;Min_cycle;Max_cycle;Signal;HPM_P1;HPM_P2
2022/10/20 00:00:22;;;;;;;16.52;10.23;;;;;;;9.01;100.00;101643.06;5043013;28;20040;-65
2022/10/20 00:02:47;;;;;;;15.13;10.27;;;;;;;8.99;100.00;101643.28;5043590;28;20428;-65
2022/10/20 00:05:12;;;;;;;16.63;10.52;;;;;;;8.95;100.00;101655.69;5040912;28;20119;-65
2022/10/20 00:07:38;;;;;;;16.50;10.07;;;;;;;8.96;100.00;101645.56;5042822;28;20048;-65
2022/10/20 00:10:03;;;;;;;16.50;10.43;;;;;;;9.00;100.00;101641.38;5042198;28;20049;-65
2022/10/20 00:12:29;;;;;;;16.98;9.82;;;;;;;9.02;100.00;101623.72;5042925;28;20060;-65
2022/10/20 00:14:54;;;;;;;17.92;10.50;;;;;;;8.97;100.00;101614.38;5042375;28;20033;-65
2022/10/20 00:17:19;;;;;;;17.15;10.15;;;;;;;8.98;100.00;101616.09;5042466;28;20407;-66
2022/10/20 00:19:48;;;;;;;14.00;10.88;;;;;;;8.96;100.00;101613.53;5043019;28;20090;-65
2022/10/20 00:22:13;;;;;;;19.23;10.90;;;;;;;8.95;100.00;101611.84;5041157;28;20035;-65
2022/10/20 00:24:38;;;;;;;14.82;9.70;;;;;;;8.95;100.00;101608.25;5042975;28;20036;-65
2022/10/20 00:27:04;;;;;;;16.33;10.88;;;;;;;8.97;100.00;101598.81;5043890;28;20070;-65
2022/10/20 00:29:29;;;;;;;15.80;11.10;;;;;;;8.91;100.00;101606.97;5048771;28;20039;-65
2022/10/20 00:31:55;;;;;;;16.00;11.27;;;;;;;8.90;100.00;101603.38;5049046;28;20028;-65
2022/10/20 00:34:20;;;;;;;16.75;9.77;;;;;;;8.91;100.00;101599.59;5049711;28;20033;-66
2022/10/20 00:36:45;;;;;;;18.88;11.23;;;;;;;8.93;100.00;101610.38;5048153;28;20074;-65
2022/10/20 00:39:10;;;;;;;15.27;11.18;;;;;;;8.90;100.00;101611.59;5048290;28;20032;-65
2022/10/20 00:41:36;;;;;;;17.23;11.70;;;;;;;8.90;100.00;101599.78;5048970;28;20025;-65
2022/10/20 00:44:23;;;;;;;16.35;10.95;;;;;;;8.90;100.00;101605.28;5049505;28;20501;-65
2022/10/20 00:46:48;;;;;;;18.43;10.80;;;;;;;8.90;100.00;101597.06;5041016;28;20048;-66
2022/10/20 00:49:22;;;;;;;16.05;11.40;;;;;;;8.90;100.00;101586.94;5048429;28;20033;-65
2022/10/20 00:51:48;;;;;;;18.05;11.38;;;;;;;8.87;100.00;101581.00;5047978;28;20040;-65
2022/10/20 00:54:18;;;;;;;16.98;11.13;;;;;;;8.84;100.00;101588.59;5049689;28;20079;-65
2022/10/20 00:56:46;;;;;;;17.70;11.00;;;;;;;8.84;100.00;101576.78;5049497;28;20367;-65
2022/10/20 00:59:15;;;;;;;18.02;11.07;;;;;;;8.82;100.00;101571.53;5049100;28;20017;-65
2022/10/20 01:01:42;;;;;;;17.40;11.00;;;;;;;8.82;100.00;101568.78;5048903;28;20025;-65
2022/10/20 01:04:07;;;;;;;17.25;12.20;;;;;;;8.80;100.00;101567.28;5048698;28;20066;-65
2022/10/20 01:06:33;;;;;;;16.55;11.73;;;;;;;8.80;100.00;101570.88;5046900;28;20442;-65
2022/10/20 01:08:59;;;;;;;17.30;11.57;;;;;;;8.78;100.00;101567.50;5048424;28;20049;-65
2022/10/20 01:11:43;;;;;;;19.20;11.98;;;;;;;8.80;100.00;101561.81;5049581;28;20021;-66
2022/10/20 01:14:21;;;;;;;18.35;12.50;;;;;;;8.78;100.00;101556.53;5049482;28;20374;-65
2022/10/20 01:17:08;;;;;;;16.50;11.95;;;;;;;8.77;100.00;101565.81;5050158;28;20088;-65
2022/10/20 01:19:48;;;;;;;16.37;12.07;;;;;;;8.80;100.00;101554.44;5050335;28;20055;-65
2022/10/20 01:22:28;;;;;;;17.00;11.38;;;;;;;8.81;100.00;101549.78;5047988;28;20535;-65
2022/10/20 01:25:38;;;;;;;20.02;12.38;;;;;;;8.78;100.00;101548.31;5049272;28;20032;-65
2022/10/20 01:28:41;;;;;;;15.77;11.20;;;;;;;8.89;100.00;101530.47;5049191;28;20025;-65
2022/10/20 01:31:57;;;;;;;19.17;11.93;;;;;;;8.94;100.00;101517.00;5036112;28;20033;-66
2022/10/20 01:34:33;;;;;;;17.55;11.35;;;;;;;8.82;100.00;101514.00;5040220;28;20064;-65
2022/10/20 01:37:02;;;;;;;18.40;13.07;;;;;;;8.73;100.00;101493.31;5047607;28;20017;-65
2022/10/20 01:39:38;;;;;;;17.45;12.50;;;;;;;8.70;100.00;101498.34;5045965;28;20025;-65
2022/10/20 01:42:10;;;;;;;17.77;12.57;;;;;;;8.70;100.00;101496.44;5045554;28;20228;-65
2022/10/20 01:44:38;;;;;;;23.92;13.85;;;;;;;8.65;100.00;101501.69;5045668;28;20116;-65
2022/10/20 01:47:05;;;;;;;20.10;13.05;;;;;;;8.66;100.00;101505.25;5045390;28;20555;-65
2022/10/20 01:49:31;;;;;;;21.05;13.60;;;;;;;8.66;100.00;101489.66;5045892;28;20426;-65
2022/10/20 01:51:56;;;;;;;20.40;13.73;;;;;;;8.62;100.00;101482.06;5044282;28;20029;-65
2022/10/20 01:54:25;;;;;;;19.60;12.82;;;;;;;8.67;100.00;101487.78;5046370;28;20387;-65
2022/10/20 01:57:09;;;;;;;19.45;13.43;;;;;;;8.60;100.00;101495.13;5045821;28;20032;-66
2022/10/20 02:00:07;;;;;;;19.35;13.38;;;;;;;8.66;100.00;101500.63;5046223;28;20112;-65
2022/10/20 02:02:48;;;;;;;19.70;13.40;;;;;;;8.58;100.00;101509.88;5022808;28;20049;-65
2022/10/20 02:05:28;;;;;;;21.45;13.85;;;;;;;8.58;100.00;101501.66;5044621;28;20032;-65
2022/10/20 02:08:08;;;;;;;20.70;14.20;;;;;;;8.57;100.00;101507.34;5045221;28;20157;-65
2022/10/20 02:10:50;;;;;;;20.30;13.93;;;;;;;8.57;100.00;101494.50;5044912;28;20434;-65
2022/10/20 02:13:19;;;;;;;22.45;13.80;;;;;;;8.58;100.00;101487.13;5045968;28;20025;-65
2022/10/20 02:15:52;;;;;;;20.98;15.20;;;;;;;8.57;100.00;101479.97;5045994;28;20127;-65
2022/10/20 02:18:24;;;;;;;24.65;14.68;;;;;;;8.56;100.00;101481.81;5045596;28;20024;-65
2022/10/20 02:20:53;;;;;;;22.02;15.20;;;;;;;8.53;100.00;101487.72;5043982;28;20432;-66
2022/10/20 02:23:19;;;;;;;22.05;15.68;;;;;;;8.55;100.00;101480.13;5045325;28;20594;-66
2022/10/20 02:25:48;;;;;;;23.67;15.68;;;;;;;8.54;100.00;101483.09;5045494;28;20112;-65
2022/10/20 02:28:14;;;;;;;27.10;15.38;;;;;;;8.55;100.00;101473.81;5045253;28;20468;-65
2022/10/20 02:30:40;;;;;;;24.60;16.25;;;;;;;8.53;100.00;101460.34;5045133;28;20051;-65
2022/10/20 02:33:06;;;;;;;22.27;15.18;;;;;;;8.53;100.00;101465.81;5045254;28;20471;-65
2022/10/20 02:35:32;;;;;;;27.15;15.90;;;;;;;8.56;100.00;101461.81;5043781;28;20443;-65
2022/10/20 02:37:58;;;;;;;25.80;16.23;;;;;;;8.53;100.00;101456.75;5044781;28;20025;-65
2022/10/20 02:40:23;;;;;;;24.73;15.82;;;;;;;8.57;100.00;101450.69;5044427;28;20048;-66
2022/10/20 02:42:49;;;;;;;23.65;16.52;;;;;;;8.61;100.00;101447.53;5044995;28;20021;-66
2022/10/20 02:45:14;;;;;;;25.20;16.15;;;;;;;8.57;100.00;101437.00;5045495;28;20402;-65
2022/10/20 02:47:40;;;;;;;25.95;16.80;;;;;;;8.61;100.00;101433.81;5044329;28;20025;-65
2022/10/20 02:50:06;;;;;;;29.02;17.20;;;;;;;8.55;100.00;101428.13;5043200;28;20283;-65
2022/10/20 02:52:31;;;;;;;25.55;16.42;;;;;;;8.56;100.00;101415.28;5045348;28;20025;-65
2022/10/20 02:54:56;;;;;;;24.50;16.15;;;;;;;8.64;100.00;101406.06;5044857;28;20040;-66
2022/10/20 02:57:22;;;;;;;25.83;16.38;;;;;;;8.57;100.00;101406.03;5044215;28;20388;-66
2022/10/20 02:59:47;;;;;;;25.15;17.55;;;;;;;8.57;100.00;101401.41;5045012;28;20296;-65
2022/10/20 03:02:12;;;;;;;28.20;17.98;;;;;;;8.57;100.00;101397.81;5044221;28;20505;-65
2022/10/20 03:04:38;;;;;;;26.90;17.60;;;;;;;8.58;100.00;101388.56;5043591;28;20467;-65
2022/10/20 03:07:03;;;;;;;28.60;17.85;;;;;;;8.58;100.00;101388.56;5043822;28;20021;-65
2022/10/20 03:09:28;;;;;;;30.73;18.92;;;;;;;8.57;100.00;101384.13;5044176;28;20045;-65
2022/10/20 03:11:53;;;;;;;28.23;17.70;;;;;;;8.61;100.00;101374.44;5044033;28;20747;-66
2022/10/20 03:14:19;;;;;;;29.20;18.85;;;;;;;8.57;100.00;101375.91;5044573;28;20020;-66
2022/10/20 03:16:44;;;;;;;28.13;18.88;;;;;;;8.57;100.00;101362.22;5044413;28;20453;-65
2022/10/20 03:19:09;;;;;;;30.45;19.02;;;;;;;8.56;100.00;101372.31;5044039;28;20422;-65
2022/10/20 03:21:35;;;;;;;31.17;19.00;;;;;;;8.55;100.00;101372.53;5042885;28;20032;-65
2022/10/20 03:24:00;;;;;;;30.42;19.88;;;;;;;8.61;100.00;101357.16;5044336;28;20025;-65
2022/10/20 03:26:25;;;;;;;32.63;19.83;;;;;;;8.61;100.00;101355.25;5043911;28;20067;-65
2022/10/20 03:28:50;;;;;;;30.70;19.38;;;;;;;8.61;100.00;101341.56;5043868;28;20029;-65
2022/10/20 03:31:16;;;;;;;33.10;20.65;;;;;;;8.61;100.00;101352.53;5044632;28;20021;-65
2022/10/20 03:33:41;;;;;;;33.17;20.35;;;;;;;8.63;100.00;101349.59;5044001;28;20081;-65
2022/10/20 03:36:07;;;;;;;31.30;21.00;;;;;;;8.63;100.00;101342.22;5042668;28;20028;-65
2022/10/20 03:38:32;;;;;;;34.75;21.00;;;;;;;8.66;100.00;101339.06;5042751;28;20036;-65
2022/10/20 03:40:57;;;;;;;31.92;20.42;;;;;;;8.69;100.00;101327.72;5043571;28;20032;-65
2022/10/20 03:43:22;;;;;;;32.80;19.40;;;;;;;8.72;100.00;101324.56;5044166;28;20436;-65
2022/10/20 03:45:48;;;;;;;31.33;20.02;;;;;;;8.70;100.00;101334.88;5043691;28;20444;-65
2022/10/20 03:48:13;;;;;;;32.17;20.77;;;;;;;8.73;100.00;101329.00;5043881;28;20029;-65
2022/10/20 03:50:40;;;;;;;38.25;22.05;;;;;;;8.77;100.00;101334.91;5042906;28;20017;-65
2022/10/20 03:53:06;;;;;;;36.83;20.88;;;;;;;8.78;100.00;101331.94;5043562;28;20029;-66
2022/10/20 03:55:31;;;;;;;36.47;21.48;;;;;;;8.82;100.00;101329.66;5043439;28;20060;-65
2022/10/20 03:57:57;;;;;;;37.42;22.35;;;;;;;8.83;100.00;101334.91;5043427;28;20053;-65
2022/10/20 04:00:22;;;;;;;35.85;24.38;;;;;;;8.88;100.00;101322.50;5043669;28;20375;-66
2022/10/20 04:02:48;;;;;;;38.97;22.05;;;;;;;8.89;100.00;101313.22;5043237;28;20375;-65
2022/10/20 04:05:15;;;;;;;35.42;22.30;;;;;;;8.88;100.00;101320.59;5042642;28;20431;-65
2022/10/20 04:07:41;;;;;;;39.53;21.95;;;;;;;8.91;100.00;101309.22;5042395;28;20148;-65
2022/10/20 04:10:07;;;;;;;34.35;21.25;;;;;;;8.93;100.00;101319.97;5042625;28;20120;-65
2022/10/20 04:12:32;;;;;;;39.25;22.05;;;;;;;8.93;100.00;101312.59;5043541;28;20128;-65
2022/10/20 04:14:57;;;;;;;37.13;22.52;;;;;;;8.95;100.00;101309.66;5043535;28;20021;-65
2022/10/20 04:17:23;;;;;;;38.08;21.85;;;;;;;8.96;100.00;101311.31;5042803;28;20391;-65
2022/10/20 04:19:48;;;;;;;39.17;23.30;;;;;;;8.98;100.00;101311.97;5042772;28;20082;-66
2022/10/20 04:22:13;;;;;;;43.15;23.75;;;;;;;8.99;100.00;101309.03;5043833;28;20020;-65
2022/10/20 04:24:39;;;;;;;38.17;22.05;;;;;;;9.02;100.00;101296.78;5043064;28;20025;-65
2022/10/20 04:27:04;;;;;;;40.75;22.95;;;;;;;9.02;100.00;101289.44;5042826;28;20029;-65
2022/10/20 04:29:30;;;;;;;38.42;22.25;;;;;;;9.03;100.00;101282.06;5043018;28;20376;-65
2022/10/20 04:31:55;;;;;;;42.03;22.83;;;;;;;9.07;100.00;101266.84;5043471;28;20032;-65
2022/10/20 04:34:20;;;;;;;40.22;23.33;;;;;;;9.07;100.00;101266.84;5042904;28;20083;-66
2022/10/20 04:36:46;;;;;;;35.83;21.35;;;;;;;9.07;100.00;101258.63;5042623;28;20025;-65
2022/10/20 04:39:11;;;;;;;38.60;22.90;;;;;;;9.08;100.00;101263.09;5043267;28;20061;-65
2022/10/20 04:41:36;;;;;;;41.83;24.00;;;;;;;9.09;100.00;101268.34;5043385;28;20025;-65
2022/10/20 04:44:02;;;;;;;37.67;22.88;;;;;;;9.10;100.00;101270.03;5042871;28;20438;-65
2022/10/20 04:46:27;;;;;;;40.00;23.00;;;;;;;9.12;100.00;101261.59;5042881;28;20036;-65
2022/10/20 04:48:52;;;;;;;37.65;23.88;;;;;;;9.18;100.00;101260.78;5043649;28;20021;-65
2022/10/20 04:51:18;;;;;;;37.20;22.10;;;;;;;9.17;100.00;101252.75;5042107;28;20021;-65
2022/10/20 04:53:44;;;;;;;41.83;24.67;;;;;;;9.17;100.00;101258.22;5043854;28;20021;-65
2022/10/20 04:56:13;;;;;;;39.33;23.15;;;;;;;9.17;100.00;101259.06;5042843;28;20100;-65
2022/10/20 04:58:38;;;;;;;42.28;23.70;;;;;;;9.20;100.00;101235.88;5042733;28;20025;-65
2022/10/20 05:01:06;;;;;;;39.63;23.48;;;;;;;9.21;100.00;101229.34;5042588;28;20048;-65
2022/10/20 05:03:32;;;;;;;;;;;;;;;9.25;100.00;101217.75;5043655;28;20029;-65
2022/10/20 05:06:20;;;;;;;47.70;24.90;;;;;;;9.24;100.00;101232.50;5041165;28;19955;-65
2022/10/20 05:08:46;;;;;;;;;;;;;;;9.26;100.00;101224.91;5042068;28;20056;-65
2022/10/20 05:11:13;;;;;;;42.17;24.75;;;;;;;9.24;100.00;101218.81;5042162;28;20360;-65
2022/10/20 05:13:38;;;;;;;46.20;24.55;;;;;;;9.24;100.00;101218.81;5044090;28;20490;-65
2022/10/20 05:16:04;;;;;;;44.15;24.90;;;;;;;9.24;100.00;101216.06;5046118;28;20021;-65
2022/10/20 05:18:29;;;;;;;41.00;24.73;;;;;;;9.26;100.00;101219.41;5046254;28;20024;-66
2022/10/20 05:20:55;;;;;;;44.05;25.50;;;;;;;9.27;100.00;101240.28;5045673;28;20021;-65
2022/10/20 05:23:21;;;;;;;52.10;27.38;;;;;;;9.26;100.00;101249.56;5046942;28;20028;-65
2022/10/20 05:25:46;;;;;;;47.80;23.85;;;;;;;9.27;100.00;101237.53;5047025;28;20543;-65
2022/10/20 05:28:11;;;;;;;46.88;25.27;;;;;;;9.32;100.00;101213.06;5044776;28;20029;-65
2022/10/20 05:30:37;;;;;;;41.95;24.77;;;;;;;9.28;100.00;101206.38;5046901;28;20052;-65
2022/10/20 05:33:03;;;;;;;44.90;24.90;;;;;;;9.30;100.00;101192.44;5046668;28;20044;-65
2022/10/20 05:35:28;;;;;;;42.10;24.02;;;;;;;9.29;100.00;101197.06;5044619;28;20021;-65
2022/10/20 05:37:54;;;;;;;45.72;24.63;;;;;;;9.26;100.00;101216.69;5046304;28;20316;-65
2022/10/20 05:40:20;;;;;;;42.30;24.38;;;;;;;9.22;100.00;101222.78;5046190;28;20040;-66
2022/10/20 05:42:46;;;;;;;43.65;25.45;;;;;;;9.21;100.00;101215.63;5046655;28;20028;-65
2022/10/20 05:45:11;;;;;;;40.88;24.85;;;;;;;9.21;100.00;101215.63;5045757;28;20094;-65
2022/10/20 05:47:36;;;;;;;44.75;24.38;;;;;;;9.21;100.00;101226.59;5045969;28;20029;-65
2022/10/20 05:50:02;;;;;;;42.00;24.00;;;;;;;9.22;100.00;101215.41;5045081;28;20029;-65
2022/10/20 05:52:27;;;;;;;41.92;24.92;;;;;;;9.23;100.00;101200.69;5045692;28;20028;-65
2022/10/20 05:54:53;;;;;;;42.95;24.48;;;;;;;9.27;100.00;101201.91;5045645;28;20032;-65
2022/10/20 05:57:18;;;;;;;42.17;24.58;;;;;;;9.29;100.00;101208.03;5045819;28;20018;-66
2022/10/20 05:59:44;;;;;;;42.53;25.90;;;;;;;9.30;100.00;101209.72;5045619;28;20519;-65
2022/10/20 06:02:10;;;;;;;42.47;24.80;;;;;;;9.31;100.00;101200.44;5045972;28;20506;-65
2022/10/20 06:04:36;;;;;;;43.00;25.17;;;;;;;9.33;100.00;101216.69;5044984;28;20029;-65
2022/10/20 06:07:01;;;;;;;41.20;25.83;;;;;;;9.36;100.00;101218.97;5044764;28;20059;-66
2022/10/20 06:09:26;;;;;;;46.80;25.38;;;;;;;9.44;100.00;101213.28;5045776;28;20411;-65
2022/10/20 06:11:52;;;;;;;43.17;25.10;;;;;;;9.48;100.00;101224.66;5045405;28;20108;-65
2022/10/20 06:14:18;;;;;;;45.60;24.73;;;;;;;9.56;100.00;101229.91;5046139;28;20032;-65
2022/10/20 06:16:43;;;;;;;45.83;24.60;;;;;;;9.62;100.00;101220.81;5045542;28;20040;-65
2022/10/20 06:19:09;;;;;;;41.08;24.23;;;;;;;9.69;100.00;101207.94;5044631;28;20484;-65
2022/10/20 06:21:36;;;;;;;41.40;24.48;;;;;;;9.75;100.00;101207.06;5045309;28;20375;-65
2022/10/20 06:24:03;;;;;;;43.92;25.52;;;;;;;9.81;100.00;101200.72;5044811;28;20387;-65
2022/10/20 06:26:31;;;;;;;41.58;25.35;;;;;;;9.87;100.00;101205.31;5045410;28;20021;-65
2022/10/20 06:28:58;;;;;;;42.40;24.92;;;;;;;9.92;100.00;101201.94;5045543;28;20083;-65
2022/10/20 06:31:29;;;;;;;40.28;23.92;;;;;;;9.97;100.00;101204.03;5044837;28;20561;-65
2022/10/20 06:33:56;;;;;;;36.53;23.15;;;;;;;10.02;100.00;101224.25;5045184;28;20368;-65
2022/10/20 06:36:22;;;;;;;41.33;24.00;;;;;;;10.06;100.00;101219.19;5042521;28;20075;-66
2022/10/20 06:38:52;;;;;;;38.53;24.60;;;;;;;10.11;100.00;101228.44;5045107;28;20097;-65
2022/10/20 06:41:17;;;;;;;42.97;24.17;;;;;;;10.16;100.00;101207.75;5045153;28;20025;-65
2022/10/20 06:43:44;;;;;;;36.92;23.25;;;;;;;10.19;100.00;101215.53;5045041;28;20033;-65
2022/10/20 06:46:12;;;;;;;34.10;22.55;;;;;;;10.22;100.00;101215.09;5044670;28;20057;-65
2022/10/20 06:48:37;;;;;;;39.90;23.55;;;;;;;10.26;100.00;101198.00;5045240;28;20017;-65
2022/10/20 06:51:05;;;;;;;38.55;23.10;;;;;;;10.28;100.00;101193.13;5043667;28;20422;-65
2022/10/20 06:53:33;;;;;;;36.10;23.30;;;;;;;10.32;100.00;101196.28;5044788;28;20108;-65
2022/10/20 06:56:01;;;;;;;38.22;21.23;;;;;;;10.35;100.00;101193.09;5044466;28;20016;-66
2022/10/20 06:58:27;;;;;;;39.15;23.38;;;;;;;10.38;100.00;101198.97;5044541;28;20210;-65
2022/10/20 07:01:04;;;;;;;36.80;22.67;;;;;;;10.44;100.00;101185.41;5044096;28;20040;-65
2022/10/20 07:03:31;;;;;;;40.13;23.70;;;;;;;10.47;100.00;101188.56;5044815;28;20474;-66
2022/10/20 07:05:56;;;;;;;40.92;22.63;;;;;;;10.51;100.00;101181.59;5043213;28;20086;-66
2022/10/20 07:08:22;;;;;;;34.10;22.38;;;;;;;10.53;100.00;101182.19;5044267;28;20021;-66
2022/10/20 07:11:10;;;;;;;33.70;21.48;;;;;;;10.58;100.00;101184.28;5044698;28;20056;-65
2022/10/20 07:13:37;;;;;;;40.00;23.70;;;;;;;10.61;100.00;101179.19;5044244;28;20021;-65
2022/10/20 07:16:03;;;;;;;37.05;22.77;;;;;;;10.66;100.00;101181.25;5044244;28;20025;-65
2022/10/20 07:18:29;;;;;;;36.28;23.25;;;;;;;10.70;100.00;101178.91;5044778;28;20029;-65
2022/10/20 07:21:00;;;;;;;36.00;21.92;;;;;;;10.74;100.00;101191.94;5042365;28;20040;-65
2022/10/20 07:23:28;;;;;;;40.45;21.95;;;;;;;10.78;100.00;101195.94;5044432;28;20036;-66
2022/10/20 07:26:22;;;;;;;34.80;21.95;;;;;;;10.83;100.00;101190.63;5044412;28;20021;-66
2022/10/20 07:28:50;;;;;;;36.05;22.20;;;;;;;10.86;100.00;101192.94;5042901;28;20107;-65
2022/10/20 07:31:22;;;;;;;32.25;21.27;;;;;;;10.89;100.00;101194.38;5044397;28;20029;-66
2022/10/20 07:33:48;;;;;;;35.08;22.70;;;;;;;10.94;100.00;101201.94;5044238;28;20056;-65
2022/10/20 07:36:15;;;;;;;34.78;22.40;;;;;;;10.98;100.00;101195.78;5042419;28;20036;-65
2022/10/20 07:38:42;;;;;;;35.78;23.08;;;;;;;11.05;100.00;101187.47;5044101;28;20419;-65
2022/10/20 07:41:08;;;;;;;37.30;23.25;;;;;;;11.10;100.00;101188.50;5043438;28;20021;-66
2022/10/20 07:43:34;;;;;;;36.22;22.35;;;;;;;11.20;100.00;101200.88;5044089;28;20090;-65
2022/10/20 07:46:00;;;;;;;35.13;23.55;;;;;;;11.27;100.00;101198.91;5044164;28;20365;-65
2022/10/20 07:48:25;;;;;;;36.88;22.90;;;;;;;11.38;100.00;101200.91;5043644;28;20040;-65
2022/10/20 07:50:50;;;;;;;36.88;22.50;;;;;;;11.42;100.00;101191.97;5042383;28;20028;-66
2022/10/20 07:53:16;;;;;;;35.03;22.95;;;;;;;11.51;100.00;101199.94;5044510;28;20070;-65
2022/10/20 07:55:41;;;;;;;33.53;22.33;;;;;;;11.58;100.00;101203.44;5043893;28;20036;-66
2022/10/20 07:58:06;;;;;;;32.63;21.77;;;;;;;11.64;100.00;101197.84;5043584;28;20321;-66
2022/10/20 08:00:31;;;;;;;35.35;21.27;;;;;;;11.77;100.00;101198.78;5043249;28;20040;-66
2022/10/20 08:02:57;;;;;;;33.03;22.27;;;;;;;11.82;100.00;101197.06;5043765;28;20383;-65
2022/10/20 08:05:22;;;;;;;34.45;21.48;;;;;;;11.94;100.00;101197.09;5041942;28;20136;-66
2022/10/20 08:07:47;;;;;;;32.17;21.27;;;;;;;12.08;100.00;101200.53;5043990;28;20028;-65
2022/10/20 08:10:13;;;;;;;35.17;21.55;;;;;;;12.15;100.00;101193.03;5043179;28;20052;-66
2022/10/20 08:12:38;;;;;;;33.15;21.23;;;;;;;12.30;100.00;101184.34;5043708;28;20031;-65
2022/10/20 08:15:04;;;;;;;34.25;20.88;;;;;;;12.55;100.00;101182.25;5043627;28;20025;-66
2022/10/20 08:17:30;;;;;;;36.42;21.17;;;;;;;12.78;99.73;101173.22;5043234;28;20487;-66
2022/10/20 08:19:55;;;;;;;31.63;20.77;;;;;;;12.78;98.09;101172.38;5042433;28;20075;-66
2022/10/20 08:22:20;;;;;;;33.50;21.95;;;;;;;12.72;98.25;101180.53;5043041;28;20017;-66
2022/10/20 08:24:46;;;;;;;29.02;19.73;;;;;;;12.69;99.04;101175.47;5043835;28;20388;-66
2022/10/20 08:27:11;;;;;;;31.85;22.75;;;;;;;12.72;99.17;101171.38;5042769;28;20085;-66
2022/10/20 08:29:37;;;;;;;33.20;20.42;;;;;;;12.88;97.21;101175.41;5043148;28;20388;-66
2022/10/20 08:32:02;;;;;;;30.73;21.23;;;;;;;12.90;97.12;101164.97;5043437;28;20037;-66
2022/10/20 08:34:27;;;;;;;31.65;20.85;;;;;;;12.82;97.86;101177.16;5042951;28;20028;-66
2022/10/20 08:36:53;;;;;;;27.80;20.90;;;;;;;12.76;98.35;101161.56;5041790;28;20154;-66
2022/10/20 08:39:18;;;;;;;32.13;19.98;;;;;;;12.76;98.21;101167.09;5043163;28;20021;-66
2022/10/20 08:41:46;;;;;;;31.75;21.20;;;;;;;12.69;98.23;101180.16;5043932;28;20063;-66
2022/10/20 08:44:22;;;;;;;32.13;21.75;;;;;;;12.67;98.49;101165.75;5043069;28;20433;-66
2022/10/20 08:46:47;;;;;;;34.67;21.92;;;;;;;12.67;99.40;101172.13;5043196;28;20025;-66
2022/10/20 08:49:23;;;;;;;36.33;20.70;;;;;;;12.80;99.00;101170.22;5046315;28;20377;-66
2022/10/20 08:51:49;;;;;;;32.38;20.52;;;;;;;12.88;98.21;101170.72;5046014;28;20158;-66
2022/10/20 08:54:15;;;;;;;30.92;19.92;;;;;;;13.36;98.08;101164.13;5047452;28;20120;-66
2022/10/20 08:56:43;;;;;;;31.23;20.73;;;;;;;14.08;94.35;101147.16;5046906;28;20093;-66
2022/10/20 08:59:25;;;;;;;30.98;19.23;;;;;;;15.17;91.21;101157.06;5046997;28;20704;-66
2022/10/20 09:01:51;;;;;;;26.98;18.48;;;;;;;16.22;84.06;101152.34;5047058;28;20036;-66
2022/10/20 09:04:39;;;;;;;30.67;17.35;;;;;;;16.25;81.08;101147.13;5045823;28;20029;-66
2022/10/20 09:07:14;;;;;;;27.33;18.67;;;;;;;16.20;81.53;101132.38;5046237;28;20410;-66
2022/10/20 09:09:40;;;;;;;33.08;18.23;;;;;;;15.94;80.20;101134.03;5046792;28;20103;-66
2022/10/20 09:12:11;;;;;;;25.73;16.80;;;;;;;15.52;82.11;101140.13;5046546;28;20025;-66
2022/10/20 09:14:36;;;;;;;23.13;18.55;;;;;;;15.16;82.80;101138.81;5046677;28;20702;-66
2022/10/20 09:17:02;;;;;;;30.05;18.75;;;;;;;14.88;85.31;101143.34;5046263;28;20083;-66
2022/10/20 09:19:28;;;;;;;28.00;19.33;;;;;;;14.71;87.17;101145.28;5046193;28;20028;-66
2022/10/20 09:22:04;;;;;;;27.45;19.15;;;;;;;14.47;87.98;101150.94;5046099;28;20021;-66
2022/10/20 09:24:30;;;;;;;28.77;19.58;;;;;;;14.20;90.21;101147.13;5046363;28;20033;-66
2022/10/20 09:27:16;;;;;;;28.42;18.92;;;;;;;14.11;90.75;101148.59;5046854;28;20020;-66
2022/10/20 09:29:41;;;;;;;30.02;19.45;;;;;;;13.93;91.58;101135.81;5046428;28;20623;-66
2022/10/20 09:32:34;;;;;;;31.52;19.95;;;;;;;13.84;92.59;101146.41;5046053;28;20044;-66
2022/10/20 09:35:17;;;;;;;29.25;20.55;;;;;;;13.69;92.75;101144.19;5040188;28;20037;-66
2022/10/20 09:38:05;;;;;;;32.15;19.45;;;;;;;13.58;94.17;101147.78;5046410;28;20029;-66
2022/10/20 09:40:31;;;;;;;29.35;20.38;;;;;;;13.57;95.40;101137.84;5038581;28;20029;-66
2022/10/20 09:43:01;;;;;;;35.20;20.85;;;;;;;13.57;95.71;101143.34;5045769;28;20533;-66
2022/10/20 09:45:31;;;;;;;32.33;20.45;;;;;;;13.57;96.11;101146.09;5045720;28;20017;-66
2022/10/20 09:48:37;;;;;;;27.95;19.40;;;;;;;13.62;96.17;101159.19;5045990;28;20029;-66
2022/10/20 09:51:04;;;;;;;30.52;20.35;;;;;;;13.54;96.23;101152.13;5003175;28;20033;-66
2022/10/20 09:53:34;;;;;;;31.53;20.23;;;;;;;13.56;96.25;101152.72;5003925;28;20032;-66
2022/10/20 09:55:59;;;;;;;26.52;19.83;;;;;;;13.54;96.00;101152.13;5024462;28;20362;-66
2022/10/20 09:58:31;;;;;;;32.97;19.75;;;;;;;13.52;96.54;101157.03;5045958;28;20032;-66
2022/10/20 10:01:06;;;;;;;30.48;19.60;;;;;;;13.50;96.54;101142.66;5045307;28;20017;-66
2022/10/20 10:03:43;;;;;;;31.13;20.05;;;;;;;13.50;97.99;101137.97;5044869;28;20025;-66
2022/10/20 10:06:42;;;;;;;30.88;19.90;;;;;;;13.47;97.66;101121.88;5045116;28;20032;-66
2022/10/20 10:09:26;;;;;;;33.70;19.73;;;;;;;13.45;98.27;101129.59;5037066;28;20040;-66
2022/10/20 10:12:01;;;;;;;27.60;18.95;;;;;;;13.41;98.54;101128.38;5045314;28;20036;-66
2022/10/20 10:14:27;;;;;;;30.17;18.92;;;;;;;13.40;99.45;101129.47;5046000;28;20021;-65
2022/10/20 10:16:53;;;;;;;28.15;18.83;;;;;;;13.39;99.65;101132.47;5045239;28;20490;-66
2022/10/20 10:19:21;;;;;;;31.83;20.30;;;;;;;13.40;100.00;101137.75;5044744;28;20017;-66
2022/10/20 10:21:58;;;;;;;30.25;19.90;;;;;;;13.40;100.00;101140.50;5045377;28;20032;-66
2022/10/20 10:24:42;;;;;;;29.30;20.13;;;;;;;13.42;100.00;101140.25;5045659;28;20059;-66
2022/10/20 10:27:22;;;;;;;32.83;20.33;;;;;;;13.42;100.00;101141.09;5045110;28;20496;-66
2022/10/20 10:29:48;;;;;;;32.72;21.02;;;;;;;13.38;100.00;101131.66;5044835;28;20468;-66
2022/10/20 10:32:18;;;;;;;31.55;20.45;;;;;;;13.37;100.00;101121.66;5045759;28;20033;-65
2022/10/20 10:34:57;;;;;;;31.83;21.38;;;;;;;13.36;100.00;101124.69;5046482;28;20098;-66
2022/10/20 10:37:22;;;;;;;33.92;21.08;;;;;;;13.33;100.00;101114.13;5044037;28;20028;-66
2022/10/20 10:39:48;;;;;;;34.65;21.52;;;;;;;13.30;100.00;101109.94;5044317;28;20032;-66
2022/10/20 10:42:25;;;;;;;35.70;22.38;;;;;;;13.27;100.00;101107.66;5045899;28;20029;-66
2022/10/20 10:44:58;;;;;;;34.05;21.98;;;;;;;13.27;100.00;101099.38;5044424;28;20563;-66
2022/10/20 10:48:11;;;;;;;35.15;23.35;;;;;;;13.27;100.00;101096.63;5045487;28;20082;-66
2022/10/20 10:50:52;;;;;;;37.13;22.92;;;;;;;13.27;100.00;101093.03;5002036;28;20100;-66
2022/10/20 10:53:41;;;;;;;34.25;23.42;;;;;;;13.26;100.00;101100.47;5029037;28;20025;-65
2022/10/20 10:56:18;;;;;;;39.55;23.48;;;;;;;13.23;100.00;101110.09;5044372;28;20039;-66
2022/10/20 10:58:57;;;;;;;35.97;24.98;;;;;;;13.24;100.00;101110.91;5044304;28;20566;-66
2022/10/20 11:01:37;;;;;;;39.28;25.05;;;;;;;13.19;100.00;101105.25;5044814;28;20108;-66
2022/10/20 11:04:22;;;;;;;39.33;25.23;;;;;;;13.19;100.00;101106.09;5042557;28;20174;-65
2022/10/20 11:07:26;;;;;;;43.58;25.65;;;;;;;13.19;100.00;101100.56;5043346;28;20029;-65
2022/10/20 11:10:04;;;;;;;41.65;26.88;;;;;;;13.18;100.00;101104.41;5037992;28;20049;-66
2022/10/20 11:12:44;;;;;;;44.20;26.10;;;;;;;13.16;100.00;101091.94;5046444;28;20029;-66
2022/10/20 11:15:47;;;;;;;49.30;27.88;;;;;;;13.18;100.00;101090.63;5044605;28;20128;-65
2022/10/20 11:18:22;;;;;;;43.22;26.10;;;;;;;13.17;100.00;101085.34;5044333;28;20542;-65